Time;durP1;ratioP1;P1;durP2;ratioP2;P2;SDS_P1;SDS_P2;PMS_P1;PMS_P2;Temp;Humidity;BMP_temperature;BMP_pressure;BME280_temperature;BME280_humidity;BME280_pressure;Samples;Min_cycle;Max_cycle;Signal;HPM_P1;HPM_P2
2021/09/05 00:02:15;;;;;;;7.85;4.78;;;;;;;12.36;97.81;99131.25;5053959;28;20476;-80
2021/09/05 00:04:42;;;;;;;7.82;5.10;;;;;;;12.41;97.39;99121.63;5053602;28;20049;-80
2021/09/05 00:07:10;;;;;;;8.93;4.38;;;;;;;12.53;96.93;99142.69;5053809;28;20045;-80
2021/09/05 00:09:37;;;;;;;7.22;4.68;;;;;;;12.37;96.69;99129.34;5053781;28;20045;-79
2021/09/05 00:12:05;;;;;;;6.93;4.78;;;;;;;12.36;96.90;99128.53;5053377;28;20049;-80
2021/09/05 00:14:32;;;;;;;8.20;4.50;;;;;;;12.60;95.52;99134.59;5053191;28;20052;-80
2021/09/05 00:16:59;;;;;;;6.80;4.53;;;;;;;12.50;95.78;99134.09;5053304;28;20040;-80
2021/09/05 00:19:27;;;;;;;7.45;4.80;;;;;;;12.46;95.88;99139.06;5053874;28;20049;-80
2021/09/05 00:21:53;;;;;;;7.93;5.07;;;;;;;12.51;95.47;99141.19;5053439;28;20390;-80
2021/09/05 00:24:22;;;;;;;7.47;4.85;;;;;;;12.52;95.17;99126.53;5053232;28;20427;-80
2021/09/05 00:26:49;;;;;;;6.32;4.22;;;;;;;12.30;95.44;99118.41;5054219;28;20048;-80
2021/09/05 00:29:17;;;;;;;5.78;4.60;;;;;;;12.23;96.20;99131.13;5054336;28;20041;-80
2021/09/05 00:31:44;;;;;;;10.32;4.63;;;;;;;11.98;97.13;99117.94;5054348;28;20045;-80
2021/09/05 00:34:11;;;;;;;8.63;4.60;;;;;;;12.05;97.45;99123.44;5054495;28;20080;-80
2021/09/05 00:36:38;;;;;;;9.23;5.00;;;;;;;11.95;97.57;99115.56;5052914;28;20053;-80
2021/09/05 00:39:06;;;;;;;9.40;5.22;;;;;;;12.02;97.20;99115.66;5053431;28;20056;-79
2021/09/05 00:41:34;;;;;;;6.03;4.07;;;;;;;12.21;96.52;99131.31;5052918;28;20123;-80
2021/09/05 00:44:04;;;;;;;8.63;4.72;;;;;;;11.97;97.31;99115.41;5053190;28;20097;-79
2021/09/05 00:46:32;;;;;;;10.95;4.95;;;;;;;11.95;97.70;99107.38;5052667;28;20056;-79
2021/09/05 00:48:59;;;;;;;11.85;4.93;;;;;;;11.82;98.74;99112.72;5052316;28;20061;-79
2021/09/05 00:51:29;;;;;;;8.35;5.10;;;;;;;12.04;98.12;99129.91;5053557;28;20049;-79
2021/09/05 00:53:57;;;;;;;7.15;4.97;;;;;;;12.07;96.44;99105.00;5052899;28;20151;-79
2021/09/05 00:56:24;;;;;;;7.93;4.10;;;;;;;12.06;96.69;99107.91;5052813;28;20463;-79
2021/09/05 00:58:54;;;;;;;7.57;4.85;;;;;;;11.92;97.51;99120.53;5052380;28;20107;-79
2021/09/05 01:01:22;;;;;;;7.25;4.65;;;;;;;11.84;98.03;99129.69;5053114;28;20127;-79
2021/09/05 01:03:49;;;;;;;8.30;4.50;;;;;;;11.95;97.27;99131.91;5052458;28;20060;-79
2021/09/05 01:06:16;;;;;;;8.98;4.60;;;;;;;11.87;97.08;99115.69;5052823;28;20052;-79
2021/09/05 01:08:44;;;;;;;6.82;4.65;;;;;;;11.91;97.89;99127.00;5052412;28;20111;-79
2021/09/05 01:11:12;;;;;;;9.20;4.82;;;;;;;11.83;97.29;99125.25;5052722;28;20505;-80
2021/09/05 01:13:38;;;;;;;7.63;4.60;;;;;;;11.78;97.70;99128.56;5052745;28;20080;-79
2021/09/05 01:16:07;;;;;;;7.40;4.00;;;;;;;11.55;98.41;99119.72;5052091;28;20091;-79
2021/09/05 01:18:33;;;;;;;6.65;4.40;;;;;;;11.51;98.33;99132.88;5052589;28;20053;-79
2021/09/05 01:21:00;;;;;;;10.10;4.72;;;;;;;11.67;97.76;99140.00;5052297;28;20049;-79
2021/09/05 01:23:27;;;;;;;6.85;4.05;;;;;;;11.83;96.67;99138.88;5052963;28;20052;-79
2021/09/05 01:25:53;;;;;;;7.97;4.47;;;;;;;11.72;97.26;99120.34;5052291;28;20463;-79
2021/09/05 01:28:22;;;;;;;7.93;4.75;;;;;;;11.63;98.11;99147.69;5052262;28;20094;-79
2021/09/05 01:30:48;;;;;;;7.38;4.22;;;;;;;11.52;98.04;99127.25;5052322;28;20052;-79
2021/09/05 01:33:16;;;;;;;6.00;4.53;;;;;;;11.42;98.26;99137.59;5052279;28;20053;-79
2021/09/05 01:35:43;;;;;;;8.85;4.57;;;;;;;11.62;97.28;99140.56;5052190;28;20048;-80
2021/09/05 01:38:09;;;;;;;6.20;4.18;;;;;;;11.49;97.83;99126.81;5052190;28;20053;-79
2021/09/05 01:40:36;;;;;;;7.88;4.68;;;;;;;11.47;98.51;99135.16;5052241;28;20475;-79
2021/09/05 01:43:03;;;;;;;7.35;4.75;;;;;;;11.36;99.10;99142.97;5051746;28;20106;-79
2021/09/05 01:45:31;;;;;;;9.40;5.47;;;;;;;11.34;99.16;99135.84;5051841;28;20481;-78
2021/09/05 01:47:58;;;;;;;10.13;4.70;;;;;;;11.27;100.00;99150.41;5052335;28;20045;-79
2021/09/05 01:50:25;;;;;;;11.20;4.45;;;;;;;11.19;100.00;99143.19;5052101;28;20059;-79
2021/09/05 01:52:51;;;;;;;6.35;4.50;;;;;;;11.41;99.20;99140.50;5052398;28;20060;-79
2021/09/05 01:55:18;;;;;;;7.45;4.60;;;;;;;11.51;98.89;99147.34;5051501;28;20044;-78
2021/09/05 01:57:45;;;;;;;6.55;4.45;;;;;;;11.30;99.34;99142.69;5052193;28;20542;-78
2021/09/05 02:00:13;;;;;;;9.00;4.90;;;;;;;11.27;99.96;99155.84;5055543;28;20060;-78
2021/09/05 02:02:41;;;;;;;6.72;4.47;;;;;;;11.11;100.00;99146.00;5056300;28;20053;-78
2021/09/05 02:05:08;;;;;;;9.02;4.88;;;;;;;11.43;99.55;99161.06;5055709;28;20045;-78
2021/09/05 02:07:35;;;;;;;10.35;5.68;;;;;;;11.40;99.13;99153.28;5056226;28;20451;-79
2021/09/05 02:10:02;;;;;;;7.90;4.72;;;;;;;11.33;99.08;99176.84;5055901;28;20057;-79
2021/09/05 02:12:29;;;;;;;8.07;4.72;;;;;;;11.03;99.63;99163.25;5056391;28;20087;-78
2021/09/05 02:14:55;;;;;;;8.10;5.05;;;;;;;10.96;100.00;99170.50;5055816;28;20099;-78
2021/09/05 02:17:22;;;;;;;6.35;4.45;;;;;;;10.90;99.93;99158.50;5056020;28;20052;-78
2021/09/05 02:19:50;;;;;;;11.57;5.50;;;;;;;10.86;100.00;99172.66;5055974;28;20053;-78
2021/09/05 02:22:17;;;;;;;7.75;5.00;;;;;;;11.03;99.71;99168.69;5055845;28;20049;-79
2021/09/05 02:24:44;;;;;;;6.10;4.82;;;;;;;11.03;99.50;99178.75;5055403;28;20057;-78
2021/09/05 02:27:10;;;;;;;6.85;4.72;;;;;;;10.93;100.00;99179.88;5055869;28;20048;-79
2021/09/05 02:29:37;;;;;;;7.75;5.00;;;;;;;10.91;100.00;99175.66;5055811;28;20040;-78
2021/09/05 02:32:05;;;;;;;7.13;4.85;;;;;;;10.89;100.00;99169.56;5055664;28;20052;-79
2021/09/05 02:34:32;;;;;;;7.10;5.05;;;;;;;11.14;99.43;99175.53;5055187;28;20127;-78
2021/09/05 02:37:00;;;;;;;7.95;5.15;;;;;;;11.12;99.99;99180.34;5055560;28;20137;-78
2021/09/05 02:39:27;;;;;;;11.30;6.13;;;;;;;10.96;100.00;99186.81;5055656;28;20099;-78
2021/09/05 02:41:54;;;;;;;9.25;5.70;;;;;;;10.84;100.00;99183.72;5055530;28;20079;-78
2021/09/05 02:44:21;;;;;;;8.35;5.30;;;;;;;10.70;100.00;99173.66;5054744;28;20546;-78
2021/09/05 02:46:47;;;;;;;10.60;5.50;;;;;;;10.79;100.00;99199.72;5054942;28;20049;-78
2021/09/05 02:49:14;;;;;;;8.25;5.30;;;;;;;10.65;100.00;99185.09;5055254;28;20057;-78
2021/09/05 02:51:42;;;;;;;6.88;4.93;;;;;;;10.79;100.00;99202.44;5055213;28;20459;-78
2021/09/05 02:54:11;;;;;;;8.70;5.32;;;;;;;10.84;99.25;99171.97;5055315;28;20515;-78
2021/09/05 02:56:38;;;;;;;8.90;5.80;;;;;;;10.99;99.79;99197.34;5054769;28;20049;-78
2021/09/05 02:59:05;;;;;;;9.02;5.35;;;;;;;10.96;99.69;99189.56;5055307;28;20183;-78
2021/09/05 03:01:31;;;;;;;9.27;4.70;;;;;;;10.78;100.00;99187.19;5055192;28;20118;-78
2021/09/05 03:03:58;;;;;;;12.18;5.05;;;;;;;10.83;100.00;99183.91;5054963;28;20045;-78
2021/09/05 03:06:25;;;;;;;9.15;5.80;;;;;;;10.82;100.00;99180.31;5054892;28;20060;-78
2021/09/05 03:08:52;;;;;;;8.77;5.35;;;;;;;10.64;100.00;99177.94;5054669;28;20120;-78
2021/09/05 03:11:20;;;;;;;9.60;5.57;;;;;;;10.66;100.00;99186.78;5054402;28;20049;-78
2021/09/05 03:13:48;;;;;;;6.63;4.88;;;;;;;10.72;100.00;99190.63;5054638;28;20462;-79
2021/09/05 03:16:15;;;;;;;10.75;5.53;;;;;;;10.70;100.00;99173.66;5054688;28;20045;-79
2021/09/05 03:18:42;;;;;;;7.88;4.60;;;;;;;10.89;100.00;99181.28;5054820;28;20049;-78
2021/09/05 03:21:08;;;;;;;7.88;4.90;;;;;;;10.85;100.00;99190.81;5054872;28;20102;-78
2021/09/05 03:23:35;;;;;;;8.95;5.65;;;;;;;10.73;100.00;99173.28;5054799;28;20099;-78
2021/09/05 03:26:02;;;;;;;8.82;5.53;;;;;;;10.65;100.00;99178.81;5054215;28;20049;-78
2021/09/05 03:28:30;;;;;;;9.60;5.68;;;;;;;10.70;100.00;99193.53;5054632;28;20404;-78
2021/09/05 03:30:57;;;;;;;11.68;5.50;;;;;;;10.71;100.00;99194.38;5054646;28;20103;-78
2021/09/05 03:33:23;;;;;;;8.18;5.07;;;;;;;10.69;100.00;99210.03;5054678;28;20060;-78
2021/09/05 03:35:51;;;;;;;7.93;4.82;;;;;;;10.69;100.00;99200.00;5053961;28;20049;-78
2021/09/05 03:38:17;;;;;;;9.88;5.63;;;;;;;10.79;100.00;99200.59;5054575;28;20110;-78
2021/09/05 03:40:44;;;;;;;8.38;5.10;;;;;;;10.86;100.00;99197.97;5054313;28;20045;-78
2021/09/05 03:43:11;;;;;;;8.18;5.15;;;;;;;10.90;100.00;99192.97;5054080;28;20053;-78
2021/09/05 03:45:39;;;;;;;7.85;4.95;;;;;;;10.89;100.00;99207.63;5053426;28;20506;-78
2021/09/05 03:48:06;;;;;;;8.82;4.75;;;;;;;10.77;100.00;99210.78;5054307;28;20486;-78
2021/09/05 03:50:33;;;;;;;8.27;4.85;;;;;;;10.90;100.00;99212.03;5054201;28;20468;-79
2021/09/05 03:53:00;;;;;;;7.18;5.10;;;;;;;10.78;100.00;99206.22;5054022;28;20435;-79
2021/09/05 03:55:27;;;;;;;6.93;4.68;;;;;;;10.67;100.00;99215.66;5053780;28;20546;-79
2021/09/05 03:57:54;;;;;;;12.15;4.95;;;;;;;10.57;100.00;99188.72;5053826;28;20175;-79
2021/09/05 04:00:20;;;;;;;7.00;4.95;;;;;;;10.81;100.00;99208.56;5054302;28;20134;-79
2021/09/05 04:02:49;;;;;;;8.45;5.57;;;;;;;10.78;100.00;99208.94;5053939;28;20052;-79
2021/09/05 04:05:15;;;;;;;11.00;5.57;;;;;;;10.62;100.00;99218.09;5053664;28;20049;-78
2021/09/05 04:07:44;;;;;;;10.23;6.10;;;;;;;10.57;100.00;99202.31;5053788;28;20484;-79
2021/09/05 04:10:13;;;;;;;12.18;6.15;;;;;;;10.47;100.00;99196.28;5053650;28;20052;-79
2021/09/05 04:12:41;;;;;;;8.10;5.35;;;;;;;10.45;100.00;99204.63;5054421;28;20057;-78
2021/09/05 04:15:10;;;;;;;9.10;5.72;;;;;;;10.40;100.00;99195.34;5053310;28;20045;-79
2021/09/05 04:17:36;;;;;;;9.40;5.70;;;;;;;10.51;100.00;99192.19;5053806;28;20045;-78
2021/09/05 04:20:06;;;;;;;9.55;5.90;;;;;;;10.36;100.00;99197.59;5053428;28;20048;-78
2021/09/05 04:22:33;;;;;;;9.38;5.80;;;;;;;10.23;100.00;99194.59;5052376;28;20041;-79
2021/09/05 04:25:00;;;;;;;10.35;6.10;;;;;;;10.32;100.00;99200.81;5053230;28;20389;-78
2021/09/05 04:27:27;;;;;;;9.32;5.93;;;;;;;10.44;100.00;99200.22;5053561;28;20099;-78
2021/09/05 04:29:53;;;;;;;7.80;5.18;;;;;;;10.53;100.00;99209.16;5053390;28;20053;-78
2021/09/05 04:32:21;;;;;;;10.15;5.78;;;;;;;10.47;99.40;99188.16;5053389;28;20455;-79
2021/09/05 04:34:48;;;;;;;7.78;5.88;;;;;;;10.52;99.33;99206.63;5052745;28;20464;-79
2021/09/05 04:37:17;;;;;;;8.75;5.95;;;;;;;10.36;99.01;99199.47;5052927;28;20099;-79
2021/09/05 04:39:44;;;;;;;10.32;4.80;;;;;;;10.28;99.84;99222.06;5052846;28;20052;-79
2021/09/05 04:42:11;;;;;;;6.85;4.55;;;;;;;10.19;100.00;99209.56;5052856;28;20045;-79
2021/09/05 04:44:39;;;;;;;8.60;6.18;;;;;;;10.29;100.00;99226.47;5053353;28;20052;-78
2021/09/05 04:47:06;;;;;;;8.10;5.55;;;;;;;10.33;100.00;99213.34;5053161;28;20389;-78
2021/09/05 04:49:33;;;;;;;11.48;5.35;;;;;;;10.43;100.00;99217.56;5052445;28;20411;-79
2021/09/05 04:52:00;;;;;;;8.10;5.30;;;;;;;10.34;100.00;99228.69;5052999;28;20053;-78
2021/09/05 04:54:28;;;;;;;11.90;5.93;;;;;;;10.28;100.00;99222.06;5052478;28;20049;-78
2021/09/05 04:56:55;;;;;;;8.15;5.35;;;;;;;10.18;100.00;99238.63;5053036;28;20455;-79
2021/09/05 04:59:22;;;;;;;13.65;5.55;;;;;;;10.20;100.00;99243.88;5052702;28;20045;-79
2021/09/05 05:01:48;;;;;;;9.45;5.13;;;;;;;10.18;100.00;99245.94;5053222;28;20052;-79
2021/09/05 05:04:15;;;;;;;8.52;4.82;;;;;;;10.03;100.00;99224.97;5052944;28;20103;-79
2021/09/05 05:06:42;;;;;;;6.30;4.47;;;;;;;10.20;100.00;99252.03;5053033;28;20562;-79
2021/09/05 05:09:10;;;;;;;9.68;5.80;;;;;;;10.26;100.00;99245.88;5052764;28;20496;-79
2021/09/05 05:11:38;;;;;;;11.38;5.18;;;;;;;10.17;100.00;99252.38;5052786;28;20049;-79
2021/09/05 05:14:05;;;;;;;8.52;5.43;;;;;;;10.16;100.00;99253.41;5052644;28;20110;-79
2021/09/05 05:16:32;;;;;;;10.15;5.85;;;;;;;10.39;100.00;99254.28;5052210;28;20106;-79
2021/09/05 05:18:59;;;;;;;7.78;5.22;;;;;;;10.60;100.00;99269.09;5052652;28;20052;-79
2021/09/05 05:21:28;;;;;;;9.32;5.32;;;;;;;10.60;100.00;99260.94;5052752;28;20542;-78
2021/09/05 05:23:55;;;;;;;7.10;4.72;;;;;;;10.41;100.00;99259.53;5051668;28;20053;-79
2021/09/05 05:26:22;;;;;;;12.15;5.82;;;;;;;10.44;100.00;99275.50;5052417;28;20288;-79
2021/09/05 05:28:50;;;;;;;7.47;5.05;;;;;;;10.28;100.00;99263.69;5052134;28;20095;-78
2021/09/05 05:31:21;;;;;;;8.68;6.10;;;;;;;10.44;100.00;99273.59;5052746;28;20451;-79
2021/09/05 05:33:48;;;;;;;6.45;4.70;;;;;;;10.52;100.00;99259.09;5051864;28;20056;-78
2021/09/05 05:36:15;;;;;;;7.03;4.65;;;;;;;10.64;100.00;99275.81;5051973;28;20535;-79
2021/09/05 05:38:42;;;;;;;9.57;4.95;;;;;;;10.77;100.00;99294.25;5051891;28;20550;-79
2021/09/05 05:41:09;;;;;;;8.10;5.50;;;;;;;10.69;100.00;99262.56;5052384;28;20463;-79
2021/09/05 05:43:36;;;;;;;8.65;5.88;;;;;;;10.78;100.00;99277.75;5052002;28;20044;-78
2021/09/05 05:46:05;;;;;;;7.90;5.38;;;;;;;10.76;100.00;99265.38;5032262;28;20053;-79
2021/09/05 05:48:34;;;;;;;8.23;5.90;;;;;;;10.91;100.00;99293.44;5048113;28;20068;-79
2021/09/05 05:51:03;;;;;;;9.00;5.75;;;;;;;10.99;100.00;99295.25;5051938;28;20048;-78
2021/09/05 05:53:30;;;;;;;9.73;5.78;;;;;;;11.11;100.00;99293.78;5052496;28;20056;-79
2021/09/05 05:55:57;;;;;;;8.15;5.20;;;;;;;11.11;100.00;99277.44;5051776;28;20053;-79
2021/09/05 05:58:24;;;;;;;8.00;5.25;;;;;;;11.46;100.00;99275.03;5052657;28;20084;-79
2021/09/05 06:00:51;;;;;;;8.60;5.97;;;;;;;12.00;99.73;99260.25;5051882;28;20049;-79
2021/09/05 06:03:21;;;;;;;9.13;5.93;;;;;;;12.15;99.63;99271.09;5052191;28;20057;-79
2021/09/05 06:05:48;;;;;;;8.43;5.50;;;;;;;12.22;99.16;99273.88;5051578;28;20052;-78
2021/09/05 06:08:15;;;;;;;9.10;5.65;;;;;;;12.42;98.38;99273.25;5052029;28;20463;-78
2021/09/05 06:10:42;;;;;;;7.82;5.53;;;;;;;12.43;98.78;99264.88;5051870;28;20085;-79
2021/09/05 06:13:08;;;;;;;10.98;5.88;;;;;;;12.35;99.58;99276.75;5051731;28;20049;-79
2021/09/05 06:15:35;;;;;;;11.55;5.93;;;;;;;12.38;100.00;99281.81;5051847;28;20045;-79
2021/09/05 06:18:02;;;;;;;8.88;5.57;;;;;;;12.57;100.00;99269.44;5051804;28;20106;-79
2021/09/05 06:20:30;;;;;;;9.13;6.25;;;;;;;12.82;99.45;99265.44;5051880;28;20477;-79
2021/09/05 06:22:57;;;;;;;9.55;6.30;;;;;;;13.36;98.21;99283.09;5051687;28;20106;-79
2021/09/05 06:25:25;;;;;;;9.32;6.05;;;;;;;13.76;96.04;99265.03;5051625;28;20493;-79
2021/09/05 06:27:52;;;;;;;9.20;5.60;;;;;;;14.39;92.79;99276.81;5051781;28;20527;-79
2021/09/05 06:30:19;;;;;;;10.23;5.68;;;;;;;14.74;90.48;99263.84;5051840;28;20045;-79
2021/09/05 06:32:46;;;;;;;7.45;5.60;;;;;;;15.21;87.96;99281.09;5051589;28;20095;-79
2021/09/05 06:35:12;;;;;;;14.02;6.00;;;;;;;15.45;86.68;99286.97;5051365;28;20099;-79
2021/09/05 06:37:40;;;;;;;11.25;5.65;;;;;;;15.63;85.72;99290.94;5051913;28;20161;-79
2021/09/05 06:40:08;;;;;;;9.00;5.75;;;;;;;15.84;85.48;99279.72;5051586;28;20087;-79
2021/09/05 06:42:35;;;;;;;9.65;5.57;;;;;;;15.92;84.26;99295.09;5051775;28;20103;-78
2021/09/05 06:45:02;;;;;;;8.70;5.60;;;;;;;16.01;83.08;99277.34;5051024;28;20049;-79
2021/09/05 06:47:29;;;;;;;8.13;5.55;;;;;;;16.42;81.85;99294.44;5055367;28;20057;-79
2021/09/05 06:49:55;;;;;;;7.70;5.20;;;;;;;16.31;81.48;99292.41;5055376;28;20499;-79
2021/09/05 06:52:22;;;;;;;8.88;6.07;;;;;;;16.32;81.47;99283.09;5055427;28;20052;-79
2021/09/05 06:54:50;;;;;;;13.35;5.97;;;;;;;16.70;80.87;99301.44;5054714;28;20049;-79
2021/09/05 06:57:17;;;;;;;8.43;5.70;;;;;;;16.63;80.06;99291.34;5055519;28;20057;-79
2021/09/05 06:59:44;;;;;;;8.23;5.15;;;;;;;16.46;81.25;99280.03;5054911;28;20057;-79
2021/09/05 07:02:10;;;;;;;7.40;5.03;;;;;;;16.49;81.27;99300.72;5055139;28;20488;-79
2021/09/05 07:04:38;;;;;;;10.48;5.18;;;;;;;16.51;81.43;99301.34;5054909;28;20056;-79
2021/09/05 07:07:05;;;;;;;8.10;5.50;;;;;;;16.76;81.13;99301.38;5055056;28;20071;-79
2021/09/05 07:09:32;;;;;;;7.43;4.53;;;;;;;16.79;80.71;99298.19;5055005;28;20060;-79
2021/09/05 07:12:00;;;;;;;7.70;5.47;;;;;;;16.99;80.63;99295.31;5054722;28;20510;-79
2021/09/05 07:14:26;;;;;;;7.85;5.30;;;;;;;17.08;81.12;99279.41;5054616;28;20045;-80
2021/09/05 07:16:53;;;;;;;8.65;5.70;;;;;;;17.25;80.73;99296.19;5054482;28;20098;-80
2021/09/05 07:19:20;;;;;;;7.60;5.10;;;;;;;17.29;80.72;99291.91;5054338;28;20110;-79
2021/09/05 07:21:47;;;;;;;12.63;5.63;;;;;;;17.29;81.08;99289.16;5054359;28;20118;-80
2021/09/05 07:24:13;;;;;;;9.98;6.20;;;;;;;17.06;82.06;99286.22;5054623;28;20077;-79
2021/09/05 07:26:41;;;;;;;8.77;5.50;;;;;;;17.03;82.84;99306.72;5054154;28;20424;-79
2021/09/05 07:29:09;;;;;;;8.52;5.57;;;;;;;17.04;83.55;99299.31;5054830;28;20140;-79
2021/09/05 07:31:36;;;;;;;7.63;5.38;;;;;;;17.39;82.35;99307.03;5054444;28;20048;-79
2021/09/05 07:34:02;;;;;;;11.77;5.07;;;;;;;17.19;82.83;99294.31;5054572;28;20098;-79
2021/09/05 07:36:29;;;;;;;7.40;5.47;;;;;;;17.41;82.41;99303.00;5053865;28;20060;-80
2021/09/05 07:38:56;;;;;;;8.95;5.72;;;;;;;17.60;81.54;99308.50;5054413;28;20069;-79
2021/09/05 07:41:23;;;;;;;9.38;5.35;;;;;;;17.86;81.18;99315.66;5054413;28;20048;-79
2021/09/05 07:43:49;;;;;;;8.02;5.07;;;;;;;17.65;80.47;99289.44;5054521;28;20107;-79
2021/09/05 07:46:18;;;;;;;8.38;5.82;;;;;;;17.82;79.59;99306.16;5054082;28;20103;-79
2021/09/05 07:48:44;;;;;;;10.30;5.95;;;;;;;17.95;80.21;99307.97;5053964;28;20059;-79
2021/09/05 07:51:11;;;;;;;12.43;5.07;;;;;;;17.97;79.77;99306.66;5054162;28;20048;-79
2021/09/05 07:53:38;;;;;;;7.65;5.35;;;;;;;17.96;80.31;99293.97;5054301;28;20107;-79
2021/09/05 07:56:05;;;;;;;9.77;6.35;;;;;;;18.07;80.41;99311.63;5054199;28;20053;-79
2021/09/05 07:58:32;;;;;;;6.75;5.05;;;;;;;18.13;79.18;99316.19;5054060;28;20053;-80
2021/09/05 08:00:59;;;;;;;8.90;5.47;;;;;;;18.20;80.43;99313.34;5053948;28;20045;-80
2021/09/05 08:03:27;;;;;;;9.35;5.70;;;;;;;18.31;80.02;99309.84;5054584;28;20401;-80
2021/09/05 08:05:54;;;;;;;10.80;5.70;;;;;;;18.52;79.95;99319.50;5053211;28;20056;-80
2021/09/05 08:08:21;;;;;;;8.98;5.78;;;;;;;18.58;80.09;99312.22;5054042;28;20057;-80
2021/09/05 08:10:48;;;;;;;9.70;5.57;;;;;;;18.62;80.90;99302.41;5053756;28;20048;-80
2021/09/05 08:13:14;;;;;;;7.95;5.43;;;;;;;18.72;79.69;99308.19;5053703;28;20049;-80
2021/09/05 08:15:41;;;;;;;7.15;4.97;;;;;;;18.73;77.92;99323.63;5053260;28;20401;-80
2021/09/05 08:18:08;;;;;;;7.43;5.32;;;;;;;18.96;78.92;99327.56;5053578;28;20447;-80
2021/09/05 08:20:37;;;;;;;7.65;5.28;;;;;;;19.03;78.14;99317.28;5053193;28;20135;-80
2021/09/05 08:23:04;;;;;;;7.88;5.20;;;;;;;19.10;78.04;99320.78;5053898;28;20068;-80
2021/09/05 08:25:33;;;;;;;11.00;5.65;;;;;;;19.09;77.42;99308.06;5052707;28;20095;-80
2021/09/05 08:28:00;;;;;;;6.07;4.63;;;;;;;19.17;77.72;99319.84;5053563;28;20562;-80
2021/09/05 08:30:27;;;;;;;8.43;5.70;;;;;;;19.31;76.24;99332.28;5053494;28;20045;-80
2021/09/05 08:32:59;;;;;;;8.18;6.38;;;;;;;19.37;76.77;99311.22;5053192;28;20564;-80
2021/09/05 08:35:26;;;;;;;9.57;6.18;;;;;;;19.27;75.74;99325.59;5053109;28;20052;-80
2021/09/05 08:37:54;;;;;;;7.85;5.65;;;;;;;19.29;76.55;99326.19;5053260;28;20049;-80
2021/09/05 08:40:23;;;;;;;8.20;5.47;;;;;;;19.31;76.47;99312.16;5053255;28;20531;-80
2021/09/05 08:42:52;;;;;;;8.07;4.83;;;;;;;19.45;76.23;99325.47;5052938;28;20049;-80
2021/09/05 08:45:21;;;;;;;11.57;5.65;;;;;;;19.31;75.16;99326.78;5053021;28;20045;-80
2021/09/05 08:47:48;;;;;;;7.38;4.60;;;;;;;19.32;74.76;99324.88;5052839;28;20071;-80
2021/09/05 08:50:16;;;;;;;7.68;4.78;;;;;;;19.50;75.60;99341.31;5052764;28;20080;-80
2021/09/05 08:52:42;;;;;;;8.23;5.72;;;;;;;19.66;74.50;99338.91;5053160;28;20496;-80
2021/09/05 08:55:11;;;;;;;6.57;4.70;;;;;;;19.70;74.77;99346.44;5052660;28;20052;-80
2021/09/05 08:57:38;;;;;;;8.57;4.97;;;;;;;19.67;72.80;99337.84;5053126;28;20061;-80
2021/09/05 09:00:06;;;;;;;9.10;5.43;;;;;;;19.76;72.05;99348.25;5052936;28;20052;-81
2021/09/05 09:02:46;;;;;;;6.50;4.28;;;;;;;19.77;72.72;99327.91;5053229;28;20063;-81
2021/09/05 09:05:14;;;;;;;8.15;4.78;;;;;;;20.04;73.16;99343.09;5052655;28;20064;-81
2021/09/05 09:07:47;;;;;;;11.98;5.00;;;;;;;20.09;74.28;99340.44;5052541;28;20459;-81
2021/09/05 09:10:17;;;;;;;7.20;4.78;;;;;;;20.24;70.47;99339.94;5052441;28;20052;-80
2021/09/05 09:12:48;;;;;;;6.55;4.15;;;;;;;20.24;69.49;99332.47;5052543;28;20496;-80
2021/09/05 09:15:20;;;;;;;5.78;4.43;;;;;;;20.32;70.11;99337.63;5052368;28;20053;-81
2021/09/05 09:17:51;;;;;;;8.77;4.50;;;;;;;20.41;69.87;99337.25;5052308;28;20049;-81
2021/09/05 09:20:31;;;;;;;8.27;4.85;;;;;;;20.56;70.80;99334.78;5052674;28;20062;-81
2021/09/05 09:23:06;;;;;;;8.13;5.20;;;;;;;20.75;70.27;99340.16;5052290;28;20178;-81
2021/09/05 09:25:34;;;;;;;9.32;4.18;;;;;;;20.64;68.04;99341.81;5052320;28;20059;-81
2021/09/05 09:28:01;;;;;;;6.32;4.28;;;;;;;20.65;67.06;99343.50;5052258;28;20049;-81
2021/09/05 09:30:34;;;;;;;11.02;4.20;;;;;;;20.65;67.48;99333.31;5052397;28;20045;-81
2021/09/05 09:33:01;;;;;;;5.82;4.45;;;;;;;20.94;67.87;99343.50;5052313;28;20479;-81
2021/09/05 09:35:47;;;;;;;14.10;5.53;;;;;;;21.04;68.00;99327.13;5052011;28;20098;-81
2021/09/05 09:38:14;;;;;;;6.80;4.63;;;;;;;21.21;66.50;99344.56;5052302;28;20099;-81
2021/09/05 09:40:43;;;;;;;7.10;4.32;;;;;;;21.27;66.31;99339.94;5052381;28;20073;-81
2021/09/05 09:43:16;;;;;;;7.28;4.20;;;;;;;21.18;64.21;99328.47;5052672;28;20045;-80
2021/09/05 09:45:43;;;;;;;5.40;4.00;;;;;;;21.32;63.64;99342.81;5051874;28;20052;-80
2021/09/05 09:48:10;;;;;;;7.93;4.72;;;;;;;21.46;64.08;99343.28;5052278;28;20485;-80
2021/09/05 09:50:42;;;;;;;4.97;3.70;;;;;;;21.55;64.82;99332.69;5051890;28;20049;-80
2021/09/05 09:53:09;;;;;;;5.53;4.13;;;;;;;21.68;65.73;99337.00;5052369;28;20056;-81
2021/09/05 09:55:37;;;;;;;8.23;3.88;;;;;;;21.70;64.75;99343.16;5051355;28;20126;-80
2021/09/05 09:58:06;;;;;;;6.18;3.75;;;;;;;21.83;66.71;99333.63;5052380;28;20048;-80
2021/09/05 10:00:33;;;;;;;6.60;3.95;;;;;;;21.86;64.66;99325.69;5052451;28;20045;-80
2021/09/05 10:03:01;;;;;;;5.38;3.75;;;;;;;21.96;62.79;99337.97;5052020;28;20493;-80
2021/09/05 10:05:28;;;;;;;7.03;4.00;;;;;;;21.99;64.03;99334.69;5051883;28;20079;-81
2021/09/05 10:07:56;;;;;;;5.88;3.80;;;;;;;21.95;62.34;99317.78;5051876;28;20053;-80
2021/09/05 10:10:24;;;;;;;6.38;3.80;;;;;;;22.07;61.40;99331.47;5051971;28;20554;-80
2021/09/05 10:12:52;;;;;;;5.10;3.75;;;;;;;22.17;64.30;99317.75;5052085;28;20044;-80
2021/09/05 10:15:21;;;;;;;7.47;4.07;;;;;;;22.25;60.35;99302.63;5051758;28;20106;-80
2021/09/05 10:17:48;;;;;;;7.40;3.97;;;;;;;22.48;55.30;99311.78;5051731;28;20075;-81
2021/09/05 10:20:17;;;;;;;8.02;3.58;;;;;;;22.64;55.68;99310.84;5053598;28;20107;-80
2021/09/05 10:22:44;;;;;;;5.93;3.67;;;;;;;22.74;57.03;99310.13;5056090;28;20088;-81
2021/09/05 10:25:14;;;;;;;5.47;3.38;;;;;;;22.84;54.79;99307.47;5055443;28;20056;-81
2021/09/05 10:27:45;;;;;;;;;;;;;;;22.89;55.42;99315.00;5056808;28;20053;-81
2021/09/05 10:30:14;;;;;;;7.15;3.33;;;;;;;23.06;52.52;99312.09;5055606;28;19921;-81
2021/09/05 10:32:51;;;;;;;7.35;3.60;;;;;;;23.08;55.27;99307.09;5055863;28;20459;-81
2021/09/05 10:35:35;;;;;;;5.45;3.67;;;;;;;23.09;51.00;99306.88;5055008;28;20489;-81
2021/09/05 10:38:31;;;;;;;4.75;3.78;;;;;;;23.10;50.20;99305.78;5055774;28;20059;-81
2021/09/05 10:41:00;;;;;;;7.22;3.20;;;;;;;23.08;50.83;99296.03;5042566;28;20049;-81
2021/09/05 10:44:11;;;;;;;4.93;3.45;;;;;;;23.11;52.31;99285.28;5055602;28;20420;-81
2021/09/05 10:46:41;;;;;;;4.03;2.85;;;;;;;23.35;49.09;99301.56;5055239;28;20056;-81
2021/09/05 10:49:10;;;;;;;4.28;3.15;;;;;;;23.44;49.04;99302.75;5055439;28;20091;-81
2021/09/05 10:51:39;;;;;;;4.10;3.25;;;;;;;23.61;47.49;99312.84;5055125;28;20562;-81
2021/09/05 10:54:09;;;;;;;5.00;2.95;;;;;;;23.71;47.91;99312.91;5055308;28;20577;-81
2021/09/05 10:56:37;;;;;;;5.13;3.17;;;;;;;23.59;48.83;99303.94;5054960;28;20056;-81
2021/09/05 10:59:06;;;;;;;4.07;3.20;;;;;;;23.67;50.80;99309.81;5055378;28;20295;-81
2021/09/05 11:01:34;;;;;;;6.78;3.30;;;;;;;23.74;48.09;99294.88;5054672;28;20140;-81
2021/09/05 11:04:30;;;;;;;5.32;3.40;;;;;;;23.90;47.35;99304.16;5055402;28;20060;-81
2021/09/05 11:07:00;;;;;;;7.18;3.33;;;;;;;23.95;48.22;99301.41;5055133;28;20049;-81
2021/09/05 11:09:48;;;;;;;4.10;3.08;;;;;;;24.07;46.12;99302.00;5054376;28;20057;-81
2021/09/05 11:12:33;;;;;;;4.78;3.20;;;;;;;24.09;50.87;99298.94;5055085;28;20562;-81
2021/09/05 11:15:01;;;;;;;5.00;3.08;;;;;;;24.24;50.17;99314.84;5054576;28;20049;-81
2021/09/05 11:17:30;;;;;;;5.22;3.58;;;;;;;24.21;49.40;99292.06;5054932;28;20527;-81
2021/09/05 11:20:00;;;;;;;4.73;3.20;;;;;;;24.39;49.33;99315.75;5054940;28;20063;-81
2021/09/05 11:22:31;;;;;;;4.82;3.33;;;;;;;24.38;48.13;99285.47;5054323;28;20656;-81
2021/09/05 11:25:15;;;;;;;4.47;3.20;;;;;;;24.50;46.86;99307.47;5054207;28;20049;-81
2021/09/05 11:27:49;;;;;;;6.90;3.33;;;;;;;24.64;46.72;99311.41;5053966;28;20045;-81
2021/09/05 11:30:17;;;;;;;6.47;2.90;;;;;;;24.52;42.51;99299.66;5054748;28;20048;-81
2021/09/05 11:32:44;;;;;;;4.65;3.03;;;;;;;24.65;41.90;99301.13;5054132;28;20049;-81
2021/09/05 11:35:13;;;;;;;5.35;2.90;;;;;;;24.63;38.61;99303.34;5054072;28;20409;-82